MSC Canberra — H8KT — position and weather

sailwx.info

Track history (hours):
 
Tides and Currents Weather Stations Pressure Air Temp Water Temp Dewpoint Dewpoint Depression Visibility Wind Speed Wind Dir Waves Ship Positions

MSC Canberra

Last reported at 2018-Feb-16 23:30 UTC. Time now 2018-Feb-20 11:29 UTC.
Position N 40°26' W 073°41'.

Length 220 m; beam 30.6 m; draft 12 m.

Type: Ship (hazmat cat A). MMSI: 357455000.

Date/timePositionNaut miles runAvg speedWind from/ knotsBaromVisibWave heightAir tempDewpointWater temp
2018-Feb-16 23:30N 40°26' W 073°41'5 9.5
2018-Feb-16 22:59N 40°27' W 073°47'4 8.7
2018-Feb-16 22:30N 40°28' W 073°52'611.9
2018-Feb-16 22:00N 40°31' W 073°59'714.9
2018-Feb-16 21:30N 40°38' W 074°03'4 8.6
2018-Feb-16 21:00N 40°39' W 074°09'2 4.2
2018-Feb-16 20:28N 40°41' W 074°09'1 0.9
2018-Feb-16 19:56N 40°41' W 074°09'0 0.0
2018-Feb-16 19:26N 40°41' W 074°09'0 0.0
2018-Feb-16 18:59N 40°41' W 074°09'0 0.0
2018-Feb-16 18:23N 40°41' W 074°09'0 0.0
2018-Feb-16 17:59N 40°41' W 074°09'0 0.0
2018-Feb-16 17:26N 40°41' W 074°09'0 0.0
2018-Feb-16 16:59N 40°41' W 074°09'0 0.0
2018-Feb-16 16:23N 40°41' W 074°09'0 0.0
2018-Feb-16 15:56N 40°41' W 074°09'0 0.0
2018-Feb-16 15:29N 40°41' W 074°09'0 0.0
2018-Feb-16 14:56N 40°41' W 074°09'0 0.0
2018-Feb-16 14:26N 40°41' W 074°09'0 0.0
2018-Feb-16 13:59N 40°41' W 074°09'0 0.0
2018-Feb-16 13:29N 40°41' W 074°09'0 0.0
2018-Feb-16 12:59N 40°41' W 074°09'0 0.0
2018-Feb-16 12:29N 40°41' W 074°09'0 0.0
2018-Feb-16 11:59N 40°41' W 074°09'0 0.0
2018-Feb-16 11:29N 40°41' W 074°09'0 0.0
2018-Feb-16 10:59N 40°41' W 074°09'0 0.0
2018-Feb-16 10:26N 40°41' W 074°09'0 0.0
2018-Feb-16 09:59N 40°41' W 074°09'0 0.0
2018-Feb-16 09:29N 40°41' W 074°09'0 0.0
2018-Feb-16 08:59N 40°41' W 074°09'0 0.0
2018-Feb-16 08:29N 40°41' W 074°09'0 0.0
2018-Feb-16 07:59N 40°41' W 074°09'0 0.0
2018-Feb-16 07:29N 40°41' W 074°09'0 0.0
2018-Feb-16 06:56N 40°41' W 074°09'0 0.0
2018-Feb-16 06:29N 40°41' W 074°09'0 0.0
2018-Feb-16 05:59N 40°41' W 074°09'0 0.0
2018-Feb-16 05:29N 40°41' W 074°09'0 0.0
2018-Feb-16 04:50N 40°41' W 074°09'0 0.0
2018-Feb-16 04:29N 40°41' W 074°09'0 0.0
2018-Feb-16 03:59N 40°41' W 074°09'0 0.0
2018-Feb-16 03:29N 40°41' W 074°09'0 0.0
2018-Feb-16 02:59N 40°41' W 074°09'0 0.0
2018-Feb-16 02:29N 40°41' W 074°09'0 0.0
2018-Feb-16 01:59N 40°41' W 074°09'0 0.0
2018-Feb-16 01:29N 40°41' W 074°09'0 0.0
2018-Feb-16 00:59N 40°41' W 074°09'0 0.0
2018-Feb-16 00:26N 40°41' W 074°09'0 0.0
2018-Feb-15 23:59N 40°41' W 074°09'0 0.0
2018-Feb-15 23:29N 40°41' W 074°09'0 0.0
2018-Feb-15 22:59N 40°41' W 074°09'0 0.0
2018-Feb-15 22:29N 40°41' W 074°09'0 0.0
2018-Feb-15 21:59N 40°41' W 074°09'0 0.0
2018-Feb-15 21:29N 40°41' W 074°09'0 0.0
2018-Feb-15 20:56N 40°41' W 074°09'0 0.0
2018-Feb-15 20:29N 40°41' W 074°09'0 0.0
2018-Feb-15 19:59N 40°41' W 074°09'0 0.0
2018-Feb-15 19:29N 40°41' W 074°09'0 0.0
2018-Feb-15 18:59N 40°41' W 074°09'0 0.0
2018-Feb-15 18:29N 40°41' W 074°09'0 0.0
2018-Feb-15 17:59N 40°41' W 074°09'0 0.0
2018-Feb-15 17:26N 40°41' W 074°09'0 0.0
2018-Feb-15 16:59N 40°41' W 074°09'0 0.0
2018-Feb-15 16:29N 40°41' W 074°09'0 0.0
2018-Feb-15 16:00N 40°41' W 074°09'1 1.8
2018-Feb-15 15:30N 40°41' W 074°08'2 4.0
2018-Feb-15 15:00N 40°39' W 074°08'3 6.6
2018-Feb-15 14:30N 40°38' W 074°03'612.8
2018-Feb-15 14:00N 40°32' W 074°01'612.9
2018-Feb-15 13:30N 40°29' W 073°54'5 9.2
2018-Feb-15 13:00N 40°27' W 073°48'4 7.3
2018-Feb-15 12:30N 40°23' W 073°47'4 7.4
2018-Feb-15 12:00N 40°20' W 073°47'  
2018-Feb-13 06:58N 31°57' W 080°23'4 7.5
2018-Feb-13 06:28N 31°57' W 080°27'4 8.7
2018-Feb-13 06:00N 31°57' W 080°32'5 9.2
2018-Feb-13 05:30N 31°57' W 080°38'5 9.2
2018-Feb-13 05:00N 31°58' W 080°43'4 8.7
2018-Feb-13 04:30N 32°00' W 080°47'4 9.0
2018-Feb-13 04:00N 32°02' W 080°52'612.7
2018-Feb-13 03:30N 32°05' W 080°59'4 8.9
2018-Feb-13 03:00N 32°05' W 081°04'3 6.7
2018-Feb-13 02:30N 32°07' W 081°07'1 2.5
2018-Feb-13 02:00N 32°08' W 081°08'0 0.0
2018-Feb-13 01:28N 32°08' W 081°08'0 0.0
2018-Feb-13 00:58N 32°08' W 081°08'0 0.0
2018-Feb-13 00:28N 32°08' W 081°08'0 0.0
2018-Feb-12 23:58N 32°08' W 081°08'0 0.0
2018-Feb-12 23:28N 32°08' W 081°08'0 0.0
2018-Feb-12 22:58N 32°08' W 081°08'0 0.0
2018-Feb-12 22:16N 32°08' W 081°08'0 0.0
2018-Feb-12 21:58N 32°08' W 081°08'0 0.0
2018-Feb-12 21:28N 32°08' W 081°08'0 0.0
2018-Feb-12 20:46N 32°08' W 081°08'0 0.0
2018-Feb-12 20:28N 32°08' W 081°08'0 0.0
2018-Feb-12 19:58N 32°08' W 081°08'0 0.2
2018-Feb-12 19:30N 32°08' W 081°08'3 5.2
2018-Feb-12 19:00N 32°06' W 081°06'3 6.1
2018-Feb-12 18:30N 32°05' W 081°03'4 8.2
2018-Feb-12 18:00N 32°04' W 080°58'510.7
2018-Feb-12 17:31N 32°02' W 080°52'713.6
2018-Feb-12 17:00N 31°59' W 080°45'611.8
2018-Feb-12 16:30N 31°57' W 080°39'4 7.3
2018-Feb-12 16:00N 31°57' W 080°34'5 9.2
2018-Feb-12 15:29N 31°57' W 080°29'3 7.1
2018-Feb-12 15:00N 31°57' W 080°25'5 9.7
2018-Feb-12 14:29N 31°57' W 080°19'6 9.4
2018-Feb-12 13:48N 31°57' W 080°11'1 2.0
2018-Feb-12 13:12N 31°56' W 080°10'10 6.7
2018-Feb-12 11:44N 31°46' W 080°09'314.2
2018-Feb-12 11:30N 31°43' W 080°07'  
2018-Feb-10 00:09N 25°56' W 079°24'319.8
2018-Feb-10 00:00N 25°54' W 079°25'1019.8
2018-Feb-09 23:29N 25°44' W 079°28'1019.9
2018-Feb-09 23:00N 25°34' W 079°30'920.0
2018-Feb-09 22:32N 25°25' W 079°32'  
2018-Feb-07 09:19N 19°13' W 096°08'0 0.0
2018-Feb-07 08:46N 19°13' W 096°08'0 0.0
2018-Feb-07 08:19N 19°13' W 096°08'0 0.0
2018-Feb-07 07:55N 19°13' W 096°08'0 0.0
2018-Feb-07 07:25N 19°13' W 096°08'0 0.0
2018-Feb-07 05:19N 19°13' W 096°08'0 0.0
2018-Feb-07 04:58N 19°13' W 096°08'0 0.0
2018-Feb-07 04:25N 19°13' W 096°08'0 0.0
2018-Feb-07 03:58N 19°13' W 096°08'0 0.0
2018-Feb-07 03:28N 19°13' W 096°08'0 0.0
2018-Feb-07 02:58N 19°13' W 096°08'0 0.0
2018-Feb-07 02:25N 19°13' W 096°08'0 0.0
2018-Feb-07 01:58N 19°13' W 096°08'0 0.0
2018-Feb-07 01:28N 19°13' W 096°08'0 0.0
2018-Feb-07 00:58N 19°13' W 096°08'0 0.0
2018-Feb-07 00:28N 19°13' W 096°08'0 0.0
2018-Feb-06 23:55N 19°13' W 096°08'  
Track history (hours):
 
Tides and Currents Weather Stations Pressure Air Temp Water Temp Dewpoint Dewpoint Depression Visibility Wind Speed Wind Dir Waves Ship Positions

MSC Canberra

Last reported at 2018-Feb-16 23:30 UTC. Time now 2018-Feb-20 11:29 UTC.
Position N 40°26' W 073°41'.

Length 220 m; beam 30.6 m; draft 12 m.

Type: Ship (hazmat cat A). MMSI: 357455000.

Date/timePositionNaut miles runAvg speedWind from/ knotsBaromVisibWave heightAir tempDewpointWater temp
2018-Feb-16 23:30N 40°26' W 073°41'5 9.5
2018-Feb-16 22:59N 40°27' W 073°47'4 8.7
2018-Feb-16 22:30N 40°28' W 073°52'611.9
2018-Feb-16 22:00N 40°31' W 073°59'714.9
2018-Feb-16 21:30N 40°38' W 074°03'4 8.6
2018-Feb-16 21:00N 40°39' W 074°09'2 4.2
2018-Feb-16 20:28N 40°41' W 074°09'1 0.9
2018-Feb-16 19:56N 40°41' W 074°09'0 0.0
2018-Feb-16 19:26N 40°41' W 074°09'0 0.0
2018-Feb-16 18:59N 40°41' W 074°09'0 0.0
2018-Feb-16 18:23N 40°41' W 074°09'0 0.0
2018-Feb-16 17:59N 40°41' W 074°09'0 0.0
2018-Feb-16 17:26N 40°41' W 074°09'0 0.0
2018-Feb-16 16:59N 40°41' W 074°09'0 0.0
2018-Feb-16 16:23N 40°41' W 074°09'0 0.0
2018-Feb-16 15:56N 40°41' W 074°09'0 0.0
2018-Feb-16 15:29N 40°41' W 074°09'0 0.0
2018-Feb-16 14:56N 40°41' W 074°09'0 0.0
2018-Feb-16 14:26N 40°41' W 074°09'0 0.0
2018-Feb-16 13:59N 40°41' W 074°09'0 0.0
2018-Feb-16 13:29N 40°41' W 074°09'0 0.0
2018-Feb-16 12:59N 40°41' W 074°09'0 0.0
2018-Feb-16 12:29N 40°41' W 074°09'0 0.0
2018-Feb-16 11:59N 40°41' W 074°09'0 0.0
2018-Feb-16 11:29N 40°41' W 074°09'0 0.0
2018-Feb-16 10:59N 40°41' W 074°09'0 0.0
2018-Feb-16 10:26N 40°41' W 074°09'0 0.0
2018-Feb-16 09:59N 40°41' W 074°09'0 0.0
2018-Feb-16 09:29N 40°41' W 074°09'0 0.0
2018-Feb-16 08:59N 40°41' W 074°09'0 0.0
2018-Feb-16 08:29N 40°41' W 074°09'0 0.0
2018-Feb-16 07:59N 40°41' W 074°09'0 0.0
2018-Feb-16 07:29N 40°41' W 074°09'0 0.0
2018-Feb-16 06:56N 40°41' W 074°09'0 0.0
2018-Feb-16 06:29N 40°41' W 074°09'0 0.0
2018-Feb-16 05:59N 40°41' W 074°09'0 0.0
2018-Feb-16 05:29N 40°41' W 074°09'0 0.0
2018-Feb-16 04:50N 40°41' W 074°09'0 0.0
2018-Feb-16 04:29N 40°41' W 074°09'0 0.0
2018-Feb-16 03:59N 40°41' W 074°09'0 0.0
2018-Feb-16 03:29N 40°41' W 074°09'0 0.0
2018-Feb-16 02:59N 40°41' W 074°09'0 0.0
2018-Feb-16 02:29N 40°41' W 074°09'0 0.0
2018-Feb-16 01:59N 40°41' W 074°09'0 0.0
2018-Feb-16 01:29N 40°41' W 074°09'0 0.0
2018-Feb-16 00:59N 40°41' W 074°09'0 0.0
2018-Feb-16 00:26N 40°41' W 074°09'0 0.0
2018-Feb-15 23:59N 40°41' W 074°09'0 0.0
2018-Feb-15 23:29N 40°41' W 074°09'0 0.0
2018-Feb-15 22:59N 40°41' W 074°09'0 0.0
2018-Feb-15 22:29N 40°41' W 074°09'0 0.0
2018-Feb-15 21:59N 40°41' W 074°09'0 0.0
2018-Feb-15 21:29N 40°41' W 074°09'0 0.0
2018-Feb-15 20:56N 40°41' W 074°09'0 0.0
2018-Feb-15 20:29N 40°41' W 074°09'0 0.0
2018-Feb-15 19:59N 40°41' W 074°09'0 0.0
2018-Feb-15 19:29N 40°41' W 074°09'0 0.0
2018-Feb-15 18:59N 40°41' W 074°09'0 0.0
2018-Feb-15 18:29N 40°41' W 074°09'0 0.0
2018-Feb-15 17:59N 40°41' W 074°09'0 0.0
2018-Feb-15 17:26N 40°41' W 074°09'0 0.0
2018-Feb-15 16:59N 40°41' W 074°09'0 0.0
2018-Feb-15 16:29N 40°41' W 074°09'0 0.0
2018-Feb-15 16:00N 40°41' W 074°09'1 1.8
2018-Feb-15 15:30N 40°41' W 074°08'2 4.0
2018-Feb-15 15:00N 40°39' W 074°08'3 6.6
2018-Feb-15 14:30N 40°38' W 074°03'612.8
2018-Feb-15 14:00N 40°32' W 074°01'612.9
2018-Feb-15 13:30N 40°29' W 073°54'5 9.2
2018-Feb-15 13:00N 40°27' W 073°48'4 7.3
2018-Feb-15 12:30N 40°23' W 073°47'4 7.4
2018-Feb-15 12:00N 40°20' W 073°47'  
2018-Feb-13 06:58N 31°57' W 080°23'4 7.5
2018-Feb-13 06:28N 31°57' W 080°27'4 8.7
2018-Feb-13 06:00N 31°57' W 080°32'5 9.2
2018-Feb-13 05:30N 31°57' W 080°38'5 9.2
2018-Feb-13 05:00N 31°58' W 080°43'4 8.7
2018-Feb-13 04:30N 32°00' W 080°47'4 9.0
2018-Feb-13 04:00N 32°02' W 080°52'612.7
2018-Feb-13 03:30N 32°05' W 080°59'4 8.9
2018-Feb-13 03:00N 32°05' W 081°04'3 6.7
2018-Feb-13 02:30N 32°07' W 081°07'1 2.5
2018-Feb-13 02:00N 32°08' W 081°08'0 0.0
2018-Feb-13 01:28N 32°08' W 081°08'0 0.0
2018-Feb-13 00:58N 32°08' W 081°08'0 0.0
2018-Feb-13 00:28N 32°08' W 081°08'0 0.0
2018-Feb-12 23:58N 32°08' W 081°08'0 0.0
2018-Feb-12 23:28N 32°08' W 081°08'0 0.0
2018-Feb-12 22:58N 32°08' W 081°08'0 0.0
2018-Feb-12 22:16N 32°08' W 081°08'0 0.0
2018-Feb-12 21:58N 32°08' W 081°08'0 0.0
2018-Feb-12 21:28N 32°08' W 081°08'0 0.0
2018-Feb-12 20:46N 32°08' W 081°08'0 0.0
2018-Feb-12 20:28N 32°08' W 081°08'0 0.0
2018-Feb-12 19:58N 32°08' W 081°08'0 0.2
2018-Feb-12 19:30N 32°08' W 081°08'3 5.2
2018-Feb-12 19:00N 32°06' W 081°06'3 6.1
2018-Feb-12 18:30N 32°05' W 081°03'4 8.2
2018-Feb-12 18:00N 32°04' W 080°58'510.7
2018-Feb-12 17:31N 32°02' W 080°52'713.6
2018-Feb-12 17:00N 31°59' W 080°45'611.8
2018-Feb-12 16:30N 31°57' W 080°39'4 7.3
2018-Feb-12 16:00N 31°57' W 080°34'5 9.2
2018-Feb-12 15:29N 31°57' W 080°29'3 7.1
2018-Feb-12 15:00N 31°57' W 080°25'5 9.7
2018-Feb-12 14:29N 31°57' W 080°19'6 9.4
2018-Feb-12 13:48N 31°57' W 080°11'1 2.0
2018-Feb-12 13:12N 31°56' W 080°10'10 6.7
2018-Feb-12 11:44N 31°46' W 080°09'314.2
2018-Feb-12 11:30N 31°43' W 080°07'  
2018-Feb-10 00:09N 25°56' W 079°24'319.8
2018-Feb-10 00:00N 25°54' W 079°25'1019.8
2018-Feb-09 23:29N 25°44' W 079°28'1019.9
2018-Feb-09 23:00N 25°34' W 079°30'920.0
2018-Feb-09 22:32N 25°25' W 079°32'  
2018-Feb-07 09:19N 19°13' W 096°08'0 0.0
2018-Feb-07 08:46N 19°13' W 096°08'0 0.0
2018-Feb-07 08:19N 19°13' W 096°08'0 0.0
2018-Feb-07 07:55N 19°13' W 096°08'0 0.0
2018-Feb-07 07:25N 19°13' W 096°08'0 0.0
2018-Feb-07 05:19N 19°13' W 096°08'0 0.0
2018-Feb-07 04:58N 19°13' W 096°08'0 0.0
2018-Feb-07 04:25N 19°13' W 096°08'0 0.0
2018-Feb-07 03:58N 19°13' W 096°08'0 0.0
2018-Feb-07 03:28N 19°13' W 096°08'0 0.0
2018-Feb-07 02:58N 19°13' W 096°08'0 0.0
2018-Feb-07 02:25N 19°13' W 096°08'0 0.0
2018-Feb-07 01:58N 19°13' W 096°08'0 0.0
2018-Feb-07 01:28N 19°13' W 096°08'0 0.0
2018-Feb-07 00:58N 19°13' W 096°08'0 0.0
2018-Feb-07 00:28N 19°13' W 096°08'0 0.0
2018-Feb-06 23:55N 19°13' W 096°08'  

Dump ship's entire track history